createdAt,value
2022-11-03T00:01:37.979Z,61.39
2022-11-03T00:04:07.632Z,61.39
2022-11-03T00:06:36.757Z,61.40
2022-11-03T00:09:07.978Z,61.36
2022-11-03T00:11:37.540Z,61.42
2022-11-03T00:14:06.418Z,61.20
2022-11-03T00:16:37.271Z,61.17
2022-11-03T00:19:06.137Z,60.99
2022-11-03T00:21:34.944Z,61.42
2022-11-03T00:24:03.918Z,61.45
2022-11-03T00:26:34.483Z,61.13
2022-11-03T00:29:03.981Z,60.92
2022-11-03T00:31:33.460Z,60.90
2022-11-03T00:34:05.222Z,61.09
2022-11-03T00:36:35.264Z,61.05
2022-11-03T00:39:04.102Z,61.06
2022-11-03T00:41:32.548Z,60.66
2022-11-03T00:44:01.266Z,60.66
2022-11-03T00:46:30.645Z,60.89
2022-11-03T00:48:59.194Z,61.07
2022-11-03T00:51:30.983Z,60.98
2022-11-03T00:54:01.285Z,60.81
2022-11-03T00:56:31.537Z,60.79
2022-11-03T00:59:01.113Z,61.07
2022-11-03T01:01:31.964Z,61.01
2022-11-03T01:04:18.097Z,60.99
2022-11-03T01:06:52.808Z,60.63
2022-11-03T01:09:22.837Z,60.40
2022-11-03T01:11:57.578Z,60.16
2022-11-03T01:14:28.170Z,60.11
2022-11-03T01:16:56.867Z,59.89
2022-11-03T01:19:25.638Z,59.76
2022-11-03T01:21:55.861Z,59.57
2022-11-03T01:24:24.282Z,59.48
2022-11-03T01:26:52.825Z,59.60
2022-11-03T01:29:21.464Z,59.64
2022-11-03T01:31:50.273Z,59.80
2022-11-03T01:34:20.613Z,59.71
2022-11-03T01:36:49.966Z,59.67
2022-11-03T01:39:22.650Z,59.77
2022-11-03T01:41:52.662Z,59.95
2022-11-03T01:44:31.565Z,59.95
2022-11-03T01:47:15.246Z,59.96
2022-11-03T01:49:49.115Z,60.06
2022-11-03T01:52:21.985Z,60.03
2022-11-03T01:54:57.552Z,59.86
2022-11-03T01:57:29.439Z,59.68
2022-11-03T01:59:59.672Z,59.78
2022-11-03T02:02:29.337Z,59.86
2022-11-03T02:05:00.629Z,60.05
2022-11-03T02:07:35.297Z,60.47
2022-11-03T02:10:05.653Z,60.63
2022-11-03T02:12:34.822Z,60.74
2022-11-03T02:15:06.509Z,60.79
2022-11-03T02:17:36.838Z,60.93
2022-11-03T02:20:10.305Z,60.96
2022-11-03T02:23:14.214Z,60.69
2022-11-03T02:25:47.034Z,60.85
2022-11-03T02:28:19.349Z,61.09
2022-11-03T02:30:53.416Z,61.13
2022-11-03T02:33:39.088Z,61.25
2022-11-03T02:36:14.186Z,61.12
2022-11-03T02:38:48.482Z,61.24
2022-11-03T02:41:19.896Z,61.29
2022-11-03T02:43:50.384Z,61.47
2022-11-03T02:46:20.477Z,61.56
2022-11-03T02:48:50.030Z,61.70
2022-11-03T02:51:18.438Z,61.59
2022-11-03T02:53:55.178Z,61.79
2022-11-03T02:56:26.446Z,61.70
2022-11-03T02:59:01.727Z,61.86
2022-11-03T03:01:37.490Z,61.80
2022-11-03T03:04:09.874Z,61.73
2022-11-03T03:06:43.287Z,61.57
2022-11-03T03:09:15.478Z,61.61
2022-11-03T03:11:48.387Z,61.76
2022-11-03T03:14:19.955Z,62.01
2022-11-03T03:16:58.997Z,61.81
2022-11-03T03:19:38.061Z,61.83
2022-11-03T03:22:17.565Z,61.68
2022-11-03T03:24:53.004Z,61.66
2022-11-03T03:27:28.298Z,61.89
2022-11-03T03:30:00.913Z,61.75
2022-11-03T03:32:32.351Z,61.88
2022-11-03T03:35:04.461Z,62.25
2022-11-03T03:37:34.938Z,62.46
2022-11-03T03:40:06.462Z,62.50
2022-11-03T03:42:39.539Z,62.39
2022-11-03T03:45:11.318Z,62.72
2022-11-03T03:47:39.785Z,62.66
2022-11-03T03:50:08.966Z,62.76
2022-11-03T03:52:38.764Z,62.68
2022-11-03T03:55:09.338Z,62.75
2022-11-03T03:57:39.556Z,62.75
2022-11-03T04:00:09.695Z,62.83
2022-11-03T04:02:38.184Z,62.95
2022-11-03T04:05:07.618Z,62.68
2022-11-03T04:07:51.844Z,62.98
2022-11-03T04:10:22.871Z,63.22
2022-11-03T04:13:10.028Z,63.05
2022-11-03T04:15:57.955Z,63.05
2022-11-03T04:18:43.713Z,63.28
2022-11-03T04:21:31.726Z,63.27
2022-11-03T04:24:01.723Z,63.35
2022-11-03T04:26:30.641Z,63.54
2022-11-03T04:29:03.386Z,63.28
2022-11-03T04:31:37.069Z,63.25
2022-11-03T04:34:06.011Z,63.58
2022-11-03T04:36:34.442Z,63.73
2022-11-03T04:39:02.953Z,63.30
2022-11-03T04:41:34.373Z,63.44
2022-11-03T04:44:09.391Z,63.47
2022-11-03T04:46:38.234Z,63.15
2022-11-03T04:49:12.681Z,62.82
2022-11-03T04:51:41.000Z,63.08
2022-11-03T04:54:23.958Z,62.91
2022-11-03T04:56:52.574Z,62.87
2022-11-03T04:59:22.601Z,62.95
2022-11-03T05:01:51.091Z,63.01
2022-11-03T05:04:20.429Z,62.80
2022-11-03T05:06:52.752Z,62.90
2022-11-03T05:09:24.945Z,62.86
2022-11-03T05:11:53.633Z,62.77
2022-11-03T05:14:27.405Z,62.86
2022-11-03T05:16:56.616Z,63.02
2022-11-03T05:19:29.078Z,63.03
2022-11-03T05:21:59.266Z,63.29
2022-11-03T05:24:28.358Z,63.21
2022-11-03T05:26:59.249Z,63.28
2022-11-03T05:29:35.247Z,63.31
2022-11-03T05:32:04.009Z,63.15
2022-11-03T05:34:39.380Z,63.32
2022-11-03T05:37:27.908Z,63.78
2022-11-03T05:40:00.165Z,64.70
2022-11-03T05:42:37.764Z,64.79
2022-11-03T05:45:17.997Z,64.63
2022-11-03T05:47:46.342Z,64.56
2022-11-03T05:50:22.868Z,64.61
2022-11-03T05:52:55.381Z,64.76
2022-11-03T05:55:30.889Z,64.79
2022-11-03T05:58:01.864Z,64.28
2022-11-03T06:00:34.481Z,64.35
2022-11-03T06:03:03.617Z,64.31
2022-11-03T06:05:34.954Z,64.33
2022-11-03T06:08:05.568Z,64.40
2022-11-03T06:10:38.012Z,64.32
2022-11-03T06:13:15.131Z,64.49
2022-11-03T06:15:47.382Z,64.22
2022-11-03T06:18:18.254Z,64.21
2022-11-03T06:20:51.514Z,64.24
2022-11-03T06:23:20.949Z,64.26
2022-11-03T06:25:50.459Z,64.34
2022-11-03T06:28:22.274Z,64.41
2022-11-03T06:30:52.356Z,64.23
2022-11-03T06:33:24.961Z,64.19
2022-11-03T06:35:56.469Z,64.15
2022-11-03T06:38:27.211Z,64.26
2022-11-03T06:40:55.704Z,64.03
2022-11-03T06:43:27.079Z,64.05
2022-11-03T06:45:59.313Z,63.93
2022-11-03T06:48:29.723Z,64.05
2022-11-03T06:51:00.206Z,63.88
2022-11-03T06:53:33.243Z,63.87
2022-11-03T06:56:01.736Z,63.72
2022-11-03T06:58:33.969Z,63.76
2022-11-03T07:01:14.154Z,63.89
2022-11-03T07:03:42.619Z,63.69
2022-11-03T07:06:19.390Z,63.63
2022-11-03T07:08:50.350Z,63.72
2022-11-03T07:11:21.362Z,63.47
2022-11-03T07:13:53.117Z,63.50
2022-11-03T07:16:29.112Z,63.27
2022-11-03T07:19:00.729Z,63.33
2022-11-03T07:21:39.451Z,63.19
2022-11-03T07:24:17.873Z,62.97
2022-11-03T07:26:46.389Z,62.97
2022-11-03T07:29:22.271Z,62.89
2022-11-03T07:31:55.144Z,62.78
2022-11-03T07:34:27.762Z,62.89
2022-11-03T07:36:58.430Z,62.28
2022-11-03T07:39:37.128Z,62.21
2022-11-03T07:42:16.937Z,62.06
2022-11-03T07:44:46.462Z,61.62
2022-11-03T07:47:22.157Z,61.52
2022-11-03T07:49:50.886Z,61.61
2022-11-03T07:52:22.400Z,61.61
2022-11-03T07:54:52.374Z,61.50
2022-11-03T07:57:23.926Z,61.19
2022-11-03T07:59:54.561Z,60.96
2022-11-03T08:02:32.475Z,60.68
2022-11-03T08:05:01.517Z,60.66
2022-11-03T08:07:30.242Z,60.48
2022-11-03T08:09:58.636Z,60.30
2022-11-03T08:12:27.183Z,59.61
2022-11-03T08:14:55.723Z,59.28
2022-11-03T08:17:24.200Z,59.00
2022-11-03T08:19:54.104Z,58.84
2022-11-03T08:22:25.991Z,58.46
2022-11-03T08:24:54.389Z,57.75
2022-11-03T08:27:23.005Z,57.61
2022-11-03T08:29:51.658Z,57.63
2022-11-03T08:32:20.069Z,57.06
2022-11-03T08:34:48.502Z,57.09
2022-11-03T08:37:18.320Z,57.22
2022-11-03T08:39:46.629Z,57.01
2022-11-03T08:42:15.037Z,56.90
2022-11-03T08:44:43.404Z,56.78
2022-11-03T08:47:11.938Z,56.52
2022-11-03T08:49:40.274Z,56.37
2022-11-03T08:52:08.958Z,56.35
2022-11-03T08:54:39.095Z,56.00
2022-11-03T08:57:07.482Z,55.69
2022-11-03T08:59:36.305Z,54.98
2022-11-03T09:02:04.777Z,55.23
2022-11-03T09:04:33.272Z,55.46
2022-11-03T09:07:02.013Z,54.90
2022-11-03T09:12:20.165Z,54.69
2022-11-03T09:14:48.586Z,54.59
2022-11-03T09:17:16.936Z,54.60
2022-11-03T09:19:45.636Z,54.34
2022-11-03T09:22:14.415Z,54.31
2022-11-03T09:24:42.814Z,53.96
2022-11-03T09:27:11.196Z,53.79
2022-11-03T09:30:10.949Z,53.52
2022-11-03T09:32:29.638Z,53.70
2022-11-03T09:34:58.139Z,53.61
2022-11-03T09:37:26.441Z,53.60
2022-11-03T09:39:54.837Z,53.54
2022-11-03T09:42:23.645Z,53.35
2022-11-03T09:44:54.506Z,53.27
2022-11-03T09:47:25.842Z,53.21
2022-11-03T09:49:54.257Z,53.12
2022-11-03T09:52:25.388Z,52.96
2022-11-03T09:54:56.861Z,52.87
2022-11-03T09:57:28.197Z,52.86
2022-11-03T09:59:58.198Z,52.87
2022-11-03T10:02:29.571Z,52.74
2022-11-03T10:05:00.340Z,52.73
2022-11-03T10:07:31.546Z,52.53
2022-11-03T10:10:01.530Z,52.32
2022-11-03T10:12:33.914Z,52.47
2022-11-03T10:15:03.806Z,52.13
2022-11-03T10:17:32.677Z,52.26
2022-11-03T10:20:02.782Z,52.25
2022-11-03T10:22:31.202Z,52.37
2022-11-03T10:25:29.806Z,52.34
2022-11-03T10:28:20.573Z,52.60
2022-11-03T10:31:12.969Z,52.61
2022-11-03T10:33:43.327Z,52.80
2022-11-03T10:36:25.842Z,52.92
2022-11-03T10:38:54.965Z,52.92
2022-11-03T10:41:24.836Z,53.02
2022-11-03T10:44:08.351Z,53.07
2022-11-03T10:46:54.762Z,53.23
2022-11-03T10:49:23.291Z,53.33
2022-11-03T10:51:53.624Z,53.22
2022-11-03T10:54:24.521Z,53.20
2022-11-03T10:56:54.098Z,53.31
2022-11-03T10:59:27.574Z,53.28
2022-11-03T11:01:58.746Z,53.21
2022-11-03T11:04:27.398Z,53.06
2022-11-03T11:06:56.408Z,52.91
2022-11-03T11:09:27.418Z,53.05
2022-11-03T11:12:06.673Z,52.70
2022-11-03T11:14:40.399Z,52.67
2022-11-03T11:17:33.121Z,52.54
2022-11-03T11:20:29.773Z,52.55
2022-11-03T11:23:53.101Z,52.25
2022-11-03T11:26:42.543Z,51.97
2022-11-03T11:29:46.767Z,52.10
2022-11-03T11:32:59.533Z,52.16
2022-11-03T11:36:04.280Z,52.18
2022-11-03T11:38:59.191Z,52.41
2022-11-03T11:42:05.363Z,52.16
2022-11-03T11:44:55.143Z,52.30
2022-11-03T11:47:35.690Z,52.43
2022-11-03T11:50:36.254Z,52.08
2022-11-03T11:53:15.448Z,52.19
2022-11-03T11:55:48.791Z,52.12
2022-11-03T11:58:25.357Z,51.85
2022-11-03T12:01:00.152Z,51.90
2022-11-03T12:03:32.744Z,51.87
2022-11-03T12:06:02.792Z,51.81
2022-11-03T12:08:32.512Z,51.83
2022-11-03T12:11:03.240Z,51.37
2022-11-03T12:13:47.685Z,51.57
2022-11-03T12:16:30.145Z,51.84
2022-11-03T12:18:59.302Z,51.86
2022-11-03T12:21:49.464Z,51.53
2022-11-03T12:24:29.092Z,51.53
2022-11-03T12:26:57.517Z,51.72
2022-11-03T12:29:26.003Z,51.75
2022-11-03T12:31:54.477Z,51.53
2022-11-03T12:34:23.304Z,51.32
2022-11-03T12:36:56.206Z,51.24
2022-11-03T12:39:24.853Z,51.12
2022-11-03T12:41:53.309Z,50.96
2022-11-03T12:44:21.847Z,50.76
2022-11-03T12:46:50.334Z,50.44
2022-11-03T12:49:18.731Z,50.13
2022-11-03T12:51:47.498Z,50.10
2022-11-03T12:54:17.333Z,49.82
2022-11-03T12:56:45.930Z,49.69
2022-11-03T12:59:14.676Z,49.35
2022-11-03T13:01:43.198Z,49.54
2022-11-03T13:04:12.007Z,49.35
2022-11-03T13:06:40.629Z,49.30
2022-11-03T13:09:09.329Z,49.13
2022-11-03T13:11:56.166Z,49.08
2022-11-03T13:14:26.681Z,49.18
2022-11-03T13:16:55.242Z,48.98
2022-11-03T13:19:23.629Z,49.17
2022-11-03T13:21:52.367Z,48.97
2022-11-03T13:24:20.764Z,49.03
2022-11-03T13:26:50.509Z,48.97
2022-11-03T13:29:18.967Z,48.86
2022-11-03T13:31:47.319Z,48.95
2022-11-03T13:34:15.720Z,49.08
2022-11-03T13:36:44.163Z,48.85
2022-11-03T13:39:12.872Z,48.87
2022-11-03T13:41:41.210Z,48.97
2022-11-03T13:44:11.382Z,49.16
2022-11-03T13:46:39.857Z,49.09
2022-11-03T13:49:51.199Z,49.25
2022-11-03T13:51:56.523Z,49.45
2022-11-03T14:00:05.602Z,49.62
2022-11-03T14:05:22.422Z,49.80
2022-11-03T14:07:51.216Z,50.06
2022-11-03T14:10:19.926Z,50.04
2022-11-03T14:12:47.279Z,49.95
2022-11-03T14:15:17.125Z,50.15
2022-11-03T14:17:45.445Z,50.23
2022-11-03T14:20:14.503Z,50.14
2022-11-03T14:22:43.791Z,50.23
2022-11-03T14:25:12.126Z,50.32
2022-11-03T14:27:40.692Z,50.41
2022-11-03T14:30:10.066Z,50.47
2022-11-03T14:32:39.978Z,50.73
2022-11-03T14:35:09.120Z,51.10
2022-11-03T14:37:37.708Z,50.88
2022-11-03T14:40:07.989Z,50.97
2022-11-03T14:42:35.370Z,51.10
2022-11-03T14:45:03.762Z,51.31
2022-11-03T14:47:32.079Z,51.36
2022-11-03T14:50:01.928Z,51.53
2022-11-03T14:52:30.358Z,51.60
2022-11-03T14:54:58.817Z,51.78
2022-11-03T14:57:27.303Z,51.72
2022-11-03T14:59:55.629Z,51.96
2022-11-03T15:02:24.135Z,52.04
2022-11-03T15:04:52.670Z,52.42
2022-11-03T15:07:22.512Z,52.48
2022-11-03T15:09:51.333Z,52.61
2022-11-03T15:12:19.840Z,52.75
2022-11-03T15:14:48.233Z,52.90
2022-11-03T15:17:16.711Z,52.91
2022-11-03T15:19:45.121Z,53.13
2022-11-03T15:22:13.679Z,53.02
2022-11-03T15:27:31.899Z,53.57
2022-11-03T15:30:00.217Z,53.45
2022-11-03T15:32:32.604Z,53.41
2022-11-03T15:35:03.794Z,53.82
2022-11-03T15:37:32.262Z,53.71
2022-11-03T15:40:02.047Z,54.00
2022-11-03T15:42:30.451Z,53.99
2022-11-03T15:44:59.040Z,54.03
2022-11-03T15:47:27.615Z,54.05
2022-11-03T15:49:56.030Z,54.00
2022-11-03T15:52:24.323Z,54.00
2022-11-03T15:54:53.030Z,54.44
2022-11-03T15:57:22.814Z,54.55
2022-11-03T15:59:53.837Z,54.61
2022-11-03T16:02:40.930Z,54.74
2022-11-03T16:05:11.089Z,54.75
2022-11-03T16:07:40.098Z,54.90
2022-11-03T16:10:09.506Z,55.18
2022-11-03T16:12:39.678Z,55.25
2022-11-03T16:15:09.295Z,55.25
2022-11-03T16:17:42.783Z,55.16
2022-11-03T16:20:14.026Z,55.05
2022-11-03T16:22:42.507Z,55.42
2022-11-03T16:25:13.475Z,55.51
2022-11-03T16:27:45.574Z,55.66
2022-11-03T16:30:14.581Z,55.57
2022-11-03T16:32:43.053Z,55.91
2022-11-03T16:35:11.579Z,55.92
2022-11-03T16:37:40.045Z,56.04
2022-11-03T16:40:13.531Z,56.00
2022-11-03T16:42:46.108Z,56.17
2022-11-03T16:45:19.544Z,56.08
2022-11-03T16:47:48.667Z,56.12
2022-11-03T16:50:17.538Z,56.02
2022-11-03T16:52:46.193Z,56.18
2022-11-03T16:55:15.452Z,56.56
2022-11-03T16:57:43.873Z,56.75
2022-11-03T17:00:16.276Z,56.76
2022-11-03T17:02:45.752Z,56.72
2022-11-03T17:05:17.708Z,56.92
2022-11-03T17:07:52.930Z,56.58
2022-11-03T17:10:22.653Z,56.83
2022-11-03T17:12:51.092Z,56.81
2022-11-03T17:15:20.941Z,56.54
2022-11-03T17:17:49.645Z,56.47
2022-11-03T17:20:18.685Z,56.45
2022-11-03T17:22:47.752Z,56.42
2022-11-03T17:25:16.257Z,56.39
2022-11-03T17:27:47.747Z,56.24
2022-11-03T17:30:20.646Z,56.09
2022-11-03T17:32:53.013Z,56.02
2022-11-03T17:35:24.773Z,55.91
2022-11-03T17:37:54.505Z,55.75
2022-11-03T17:40:25.320Z,55.71
2022-11-03T17:42:54.612Z,55.58
2022-11-03T17:45:26.038Z,55.40
2022-11-03T17:47:55.861Z,55.47
2022-11-03T17:50:26.564Z,55.17
2022-11-03T17:52:55.722Z,55.03
2022-11-03T17:55:30.384Z,55.04
2022-11-03T17:58:02.130Z,55.15
2022-11-03T18:00:32.162Z,55.05
2022-11-03T18:03:02.217Z,54.91
2022-11-03T18:05:32.390Z,55.05
2022-11-03T18:08:02.813Z,55.12
2022-11-03T18:10:34.775Z,54.87
2022-11-03T18:13:17.339Z,54.82
2022-11-03T18:15:47.937Z,54.79
2022-11-03T18:18:22.390Z,55.06
2022-11-03T18:20:53.953Z,54.81
2022-11-03T18:23:23.955Z,54.95
2022-11-03T18:25:53.446Z,54.95
2022-11-03T18:28:21.970Z,54.91
2022-11-03T18:30:53.506Z,54.75
2022-11-03T18:33:26.790Z,54.50
2022-11-03T18:35:55.786Z,54.59
2022-11-03T18:38:26.052Z,54.61
2022-11-03T18:40:54.813Z,54.53
2022-11-03T18:43:25.005Z,54.41
2022-11-03T18:45:53.647Z,54.53
2022-11-03T18:48:24.333Z,54.22
2022-11-03T18:50:54.443Z,54.23
2022-11-03T18:53:25.927Z,54.21
2022-11-03T18:55:59.143Z,54.25
2022-11-03T18:58:27.791Z,54.25
2022-11-03T19:00:56.305Z,54.20
2022-11-03T19:03:26.538Z,54.12
2022-11-03T19:05:56.466Z,54.06
2022-11-03T19:08:27.248Z,53.79
2022-11-03T19:10:57.411Z,54.08
2022-11-03T19:13:30.703Z,53.92
2022-11-03T19:16:01.970Z,53.87
2022-11-03T19:18:37.220Z,53.84
2022-11-03T19:21:13.015Z,53.44
2022-11-03T19:23:47.643Z,53.15
2022-11-03T19:26:22.174Z,53.18
2022-11-03T19:28:56.260Z,53.20
2022-11-03T19:31:28.558Z,53.05
2022-11-03T19:34:00.435Z,53.11
2022-11-03T19:36:32.456Z,52.96
2022-11-03T19:39:02.175Z,53.17
2022-11-03T19:41:48.324Z,53.13
2022-11-03T19:44:17.433Z,53.09
2022-11-03T19:46:46.078Z,53.08
2022-11-03T19:49:20.398Z,52.80
2022-11-03T19:51:49.188Z,52.52
2022-11-03T19:54:22.376Z,52.27
2022-11-03T19:56:51.702Z,52.35
2022-11-03T19:59:20.880Z,52.20
2022-11-03T20:01:50.982Z,52.18
2022-11-03T20:04:21.279Z,52.07
2022-11-03T20:06:49.663Z,51.97
2022-11-03T20:09:20.407Z,51.73
2022-11-03T20:11:48.894Z,51.53
2022-11-03T20:14:21.039Z,51.58
2022-11-03T20:16:50.771Z,51.59
2022-11-03T20:19:22.004Z,51.65
2022-11-03T20:21:52.216Z,51.75
2022-11-03T20:24:22.286Z,51.71
2022-11-03T20:26:53.300Z,51.65
2022-11-03T20:29:23.170Z,51.35
2022-11-03T20:31:52.789Z,51.56
2022-11-03T20:34:24.041Z,51.53
2022-11-03T20:36:53.667Z,51.39
2022-11-03T20:39:24.813Z,51.54
2022-11-03T20:41:57.183Z,51.75
2022-11-03T20:44:27.811Z,51.71
2022-11-03T20:46:57.509Z,51.69
2022-11-03T20:49:28.701Z,51.64
2022-11-03T20:52:00.075Z,51.53
2022-11-03T20:54:30.656Z,51.62
2022-11-03T20:56:59.462Z,51.71
2022-11-03T20:59:33.310Z,51.53
2022-11-03T21:02:05.932Z,51.81
2022-11-03T21:04:37.283Z,51.88
2022-11-03T21:07:07.451Z,52.14
2022-11-03T21:09:37.220Z,52.17
2022-11-03T21:12:08.374Z,52.21
2022-11-03T21:14:38.213Z,52.38
2022-11-03T21:17:30.113Z,52.40
2022-11-03T21:20:04.631Z,52.44
2022-11-03T21:22:54.068Z,52.60
2022-11-03T21:25:25.534Z,52.72
2022-11-03T21:27:55.186Z,52.69
2022-11-03T21:30:24.874Z,52.84
2022-11-03T21:32:54.972Z,52.67
2022-11-03T21:35:25.012Z,52.87
2022-11-03T21:37:54.812Z,52.78
2022-11-03T21:40:24.487Z,52.87
2022-11-03T21:43:11.328Z,52.98
2022-11-03T21:45:39.854Z,53.33
2022-11-03T21:48:26.228Z,53.21
2022-11-03T21:50:56.190Z,53.36
2022-11-03T21:53:24.782Z,53.50
2022-11-03T21:55:53.704Z,53.65
2022-11-03T21:58:22.105Z,54.38
2022-11-03T22:00:50.622Z,54.94
2022-11-03T22:03:19.149Z,54.90
2022-11-03T22:05:47.565Z,54.79
2022-11-03T22:08:17.491Z,54.68
2022-11-03T22:10:45.959Z,54.67
2022-11-03T22:13:14.312Z,54.87
2022-11-03T22:16:00.667Z,54.93
2022-11-03T22:18:29.069Z,55.05
2022-11-03T22:21:16.296Z,55.08
2022-11-03T22:24:08.529Z,55.47
2022-11-03T22:26:59.652Z,55.44
2022-11-03T22:29:45.164Z,55.54
2022-11-03T22:32:16.465Z,55.82
2022-11-03T22:35:02.142Z,55.75
2022-11-03T22:40:16.532Z,55.87
2022-11-03T22:43:02.011Z,55.98
2022-11-03T22:45:47.533Z,56.15
2022-11-03T22:48:15.986Z,56.06
2022-11-03T22:50:44.565Z,55.97
2022-11-03T22:53:30.122Z,56.00
2022-11-03T22:56:02.357Z,56.09
2022-11-03T22:58:31.119Z,56.24
2022-11-03T23:01:00.230Z,56.33
2022-11-03T23:03:32.557Z,56.33
2022-11-03T23:06:02.748Z,56.24
2022-11-03T23:08:32.666Z,56.25
2022-11-03T23:11:10.658Z,56.44
2022-11-03T23:13:39.083Z,56.41
2022-11-03T23:16:13.009Z,56.33
2022-11-03T23:18:58.740Z,56.54
2022-11-03T23:21:28.321Z,56.52
2022-11-03T23:24:14.489Z,56.54
2022-11-03T23:26:44.864Z,56.62
2022-11-03T23:29:14.418Z,56.73
2022-11-03T23:31:44.096Z,56.80
2022-11-03T23:34:13.742Z,56.96
2022-11-03T23:36:42.164Z,56.69
2022-11-03T23:39:15.095Z,56.82
2022-11-03T23:41:45.087Z,56.82
2022-11-03T23:44:13.590Z,56.79
2022-11-03T23:46:59.821Z,56.93
2022-11-03T23:49:28.353Z,56.99
2022-11-03T23:51:56.731Z,56.93
2022-11-03T23:54:25.714Z,56.91
2022-11-03T23:57:09.319Z,57.17
2022-11-03T23:59:37.878Z,57.00
